K.pluto — 3EYQ3 — position and weather

sailwx.info

Track history (hours):
 
Tides and Currents Weather Stations Pressure Air Temp Water Temp Dewpoint Dewpoint Depression Visibility Wind Speed Wind Dir Waves Ship Positions

K.pluto

Last reported at 2016-Jul-25 05:29 UTC. Time now 2016-Aug-27 04:38 UTC.
Position N 01°56' E 102°17'.
Warning: this ship's position is 32 days out of date.

Length 170 m; draft 9.7 m.

Type: Cargo ship. MMSI: 373504000.

Date/timePositionNaut miles runAvg speedWind from/ knotsBaromVisibWave heightAir tempDewpointWater temp
2016-Jul-25 05:29N 01°56' E 102°17'1010.5
2016-Jul-25 04:30N 01°52' E 102°27'1010.1
2016-Jul-25 03:33N 01°48' E 102°36'1210.5
2016-Jul-25 02:21N 01°43' E 102°47'5812.0
2016-Jul-24 21:30N 01°12' E 103°37'9 9.9
2016-Jul-24 20:33N 01°09' E 103°46'8 8.5
2016-Jul-24 19:33N 01°13' E 103°53'3 2.5
2016-Jul-24 18:25N 01°16' E 103°53'0 0.2
2016-Jul-24 17:31N 01°16' E 103°53'0 0.0
2016-Jul-24 16:31N 01°16' E 103°53'0 0.0
2016-Jul-24 15:31N 01°16' E 103°53'0 0.0
2016-Jul-24 14:25N 01°16' E 103°53'0 0.0
2016-Jul-24 13:25N 01°16' E 103°53'0 0.0
2016-Jul-24 11:31N 01°16' E 103°53'0 0.1
2016-Jul-24 10:28N 01°16' E 103°53'0 0.1
2016-Jul-24 09:31N 01°16' E 103°53'0 0.1
2016-Jul-24 08:25N 01°16' E 103°53'0 0.1
2016-Jul-24 07:19N 01°16' E 103°53'0 0.0
2016-Jul-24 06:31N 01°16' E 103°53'0 0.1
2016-Jul-24 05:28N 01°16' E 103°53'0 0.1
2016-Jul-24 04:25N 01°16' E 103°53'0 0.0
2016-Jul-24 03:31N 01°16' E 103°53'0 0.1
2016-Jul-24 02:33N 01°16' E 103°53'4 3.6
2016-Jul-24 01:33N 01°15' E 103°57'10 9.8
2016-Jul-24 00:33N 01°17' E 104°06'  
2016-Jul-18 17:08N 22°31' E 119°53'813.5
2016-Jul-18 16:33N 22°38' E 119°53'  
Track history (hours):
 
Tides and Currents Weather Stations Pressure Air Temp Water Temp Dewpoint Dewpoint Depression Visibility Wind Speed Wind Dir Waves Ship Positions

K.pluto

Last reported at 2016-Jul-25 05:29 UTC. Time now 2016-Aug-27 04:38 UTC.
Position N 01°56' E 102°17'.
Warning: this ship's position is 32 days out of date.

Length 170 m; draft 9.7 m.

Type: Cargo ship. MMSI: 373504000.

Date/timePositionNaut miles runAvg speedWind from/ knotsBaromVisibWave heightAir tempDewpointWater temp
2016-Jul-25 05:29N 01°56' E 102°17'1010.5
2016-Jul-25 04:30N 01°52' E 102°27'1010.1
2016-Jul-25 03:33N 01°48' E 102°36'1210.5
2016-Jul-25 02:21N 01°43' E 102°47'5812.0
2016-Jul-24 21:30N 01°12' E 103°37'9 9.9
2016-Jul-24 20:33N 01°09' E 103°46'8 8.5
2016-Jul-24 19:33N 01°13' E 103°53'3 2.5
2016-Jul-24 18:25N 01°16' E 103°53'0 0.2
2016-Jul-24 17:31N 01°16' E 103°53'0 0.0
2016-Jul-24 16:31N 01°16' E 103°53'0 0.0
2016-Jul-24 15:31N 01°16' E 103°53'0 0.0
2016-Jul-24 14:25N 01°16' E 103°53'0 0.0
2016-Jul-24 13:25N 01°16' E 103°53'0 0.0
2016-Jul-24 11:31N 01°16' E 103°53'0 0.1
2016-Jul-24 10:28N 01°16' E 103°53'0 0.1
2016-Jul-24 09:31N 01°16' E 103°53'0 0.1
2016-Jul-24 08:25N 01°16' E 103°53'0 0.1
2016-Jul-24 07:19N 01°16' E 103°53'0 0.0
2016-Jul-24 06:31N 01°16' E 103°53'0 0.1
2016-Jul-24 05:28N 01°16' E 103°53'0 0.1
2016-Jul-24 04:25N 01°16' E 103°53'0 0.0
2016-Jul-24 03:31N 01°16' E 103°53'0 0.1
2016-Jul-24 02:33N 01°16' E 103°53'4 3.6
2016-Jul-24 01:33N 01°15' E 103°57'10 9.8
2016-Jul-24 00:33N 01°17' E 104°06'  
2016-Jul-18 17:08N 22°31' E 119°53'813.5
2016-Jul-18 16:33N 22°38' E 119°53'  

Dump ship's entire track history